sensor_id;sensor_type;location;lat;lon;timestamp;P1;durP1;ratioP1;P2;durP2;ratioP2
8247;SDS011;4164;49.844;8.830;2022-12-07T00:00:29;16.30;;;9.97;;
8247;SDS011;4164;49.844;8.830;2022-12-07T00:02:55;17.60;;;10.17;;
8247;SDS011;4164;49.844;8.830;2022-12-07T00:05:20;15.33;;;9.27;;
8247;SDS011;4164;49.844;8.830;2022-12-07T00:07:46;16.00;;;9.80;;
8247;SDS011;4164;49.844;8.830;2022-12-07T00:10:11;16.73;;;9.90;;
8247;SDS011;4164;49.844;8.830;2022-12-07T00:12:37;15.43;;;9.17;;
8247;SDS011;4164;49.844;8.830;2022-12-07T00:15:03;18.80;;;10.50;;
8247;SDS011;4164;49.844;8.830;2022-12-07T00:17:28;17.17;;;10.27;;
8247;SDS011;4164;49.844;8.830;2022-12-07T00:19:54;20.33;;;9.77;;
8247;SDS011;4164;49.844;8.830;2022-12-07T00:22:19;19.27;;;9.97;;
8247;SDS011;4164;49.844;8.830;2022-12-07T00:24:45;15.47;;;9.67;;
8247;SDS011;4164;49.844;8.830;2022-12-07T00:27:10;17.13;;;9.77;;
8247;SDS011;4164;49.844;8.830;2022-12-07T00:29:36;17.03;;;10.20;;
8247;SDS011;4164;49.844;8.830;2022-12-07T00:32:02;17.93;;;9.87;;
8247;SDS011;4164;49.844;8.830;2022-12-07T00:34:28;19.83;;;11.13;;
8247;SDS011;4164;49.844;8.830;2022-12-07T00:36:54;16.27;;;10.13;;
8247;SDS011;4164;49.844;8.830;2022-12-07T00:39:19;17.10;;;10.77;;
8247;SDS011;4164;49.844;8.830;2022-12-07T00:41:45;16.20;;;9.13;;
8247;SDS011;4164;49.844;8.830;2022-12-07T00:44:11;17.63;;;10.50;;
8247;SDS011;4164;49.844;8.830;2022-12-07T00:46:36;18.33;;;10.87;;
8247;SDS011;4164;49.844;8.830;2022-12-07T00:49:02;19.00;;;10.67;;
8247;SDS011;4164;49.844;8.830;2022-12-07T00:51:28;18.63;;;10.00;;
8247;SDS011;4164;49.844;8.830;2022-12-07T00:53:53;17.07;;;9.83;;
8247;SDS011;4164;49.844;8.830;2022-12-07T00:56:20;18.10;;;10.37;;
8247;SDS011;4164;49.844;8.830;2022-12-07T00:58:55;18.90;;;10.47;;
8247;SDS011;4164;49.844;8.830;2022-12-07T01:01:23;19.17;;;10.00;;
8247;SDS011;4164;49.844;8.830;2022-12-07T01:03:50;27.53;;;15.03;;
8247;SDS011;4164;49.844;8.830;2022-12-07T01:06:16;26.27;;;13.43;;
8247;SDS011;4164;49.844;8.830;2022-12-07T01:08:43;24.77;;;13.57;;
8247;SDS011;4164;49.844;8.830;2022-12-07T01:11:09;24.20;;;12.70;;
8247;SDS011;4164;49.844;8.830;2022-12-07T01:13:42;17.10;;;10.73;;
8247;SDS011;4164;49.844;8.830;2022-12-07T01:16:09;19.33;;;11.00;;
8247;SDS011;4164;49.844;8.830;2022-12-07T01:18:36;18.63;;;10.63;;
8247;SDS011;4164;49.844;8.830;2022-12-07T01:21:05;17.27;;;10.47;;
8247;SDS011;4164;49.844;8.830;2022-12-07T01:23:34;19.33;;;10.57;;
8247;SDS011;4164;49.844;8.830;2022-12-07T01:26:01;18.93;;;10.23;;
8247;SDS011;4164;49.844;8.830;2022-12-07T01:28:29;18.17;;;10.10;;
8247;SDS011;4164;49.844;8.830;2022-12-07T01:30:56;19.73;;;11.20;;
8247;SDS011;4164;49.844;8.830;2022-12-07T01:33:33;20.53;;;11.00;;
8247;SDS011;4164;49.844;8.830;2022-12-07T01:38:40;18.30;;;10.57;;
8247;SDS011;4164;49.844;8.830;2022-12-07T01:41:06;17.97;;;10.03;;
8247;SDS011;4164;49.844;8.830;2022-12-07T01:43:32;17.37;;;9.63;;
8247;SDS011;4164;49.844;8.830;2022-12-07T01:45:59;14.90;;;9.50;;
8247;SDS011;4164;49.844;8.830;2022-12-07T01:48:26;18.13;;;11.13;;
8247;SDS011;4164;49.844;8.830;2022-12-07T01:50:55;18.97;;;10.67;;
8247;SDS011;4164;49.844;8.830;2022-12-07T01:53:25;18.03;;;10.40;;
8247;SDS011;4164;49.844;8.830;2022-12-07T01:55:53;20.13;;;10.70;;
8247;SDS011;4164;49.844;8.830;2022-12-07T01:58:20;17.30;;;9.57;;
8247;SDS011;4164;49.844;8.830;2022-12-07T02:00:46;17.20;;;10.80;;
8247;SDS011;4164;49.844;8.830;2022-12-07T02:03:14;19.77;;;10.87;;
8247;SDS011;4164;49.844;8.830;2022-12-07T02:05:47;20.83;;;10.43;;
8247;SDS011;4164;49.844;8.830;2022-12-07T02:08:14;19.87;;;10.73;;
8247;SDS011;4164;49.844;8.830;2022-12-07T02:10:40;18.77;;;9.90;;
8247;SDS011;4164;49.844;8.830;2022-12-07T02:13:13;16.07;;;9.50;;
8247;SDS011;4164;49.844;8.830;2022-12-07T02:15:55;15.03;;;9.43;;
8247;SDS011;4164;49.844;8.830;2022-12-07T02:23:48;22.17;;;11.47;;
8247;SDS011;4164;49.844;8.830;2022-12-07T02:26:38;16.27;;;9.63;;
8247;SDS011;4164;49.844;8.830;2022-12-07T02:32:16;20.13;;;10.70;;
8247;SDS011;4164;49.844;8.830;2022-12-07T02:34:50;19.33;;;10.40;;
8247;SDS011;4164;49.844;8.830;2022-12-07T02:42:43;16.97;;;9.50;;
8247;SDS011;4164;49.844;8.830;2022-12-07T02:45:15;17.93;;;11.37;;
8247;SDS011;4164;49.844;8.830;2022-12-07T02:47:45;19.07;;;10.27;;
8247;SDS011;4164;49.844;8.830;2022-12-07T02:50:17;17.63;;;9.77;;
8247;SDS011;4164;49.844;8.830;2022-12-07T02:52:45;18.33;;;9.77;;
8247;SDS011;4164;49.844;8.830;2022-12-07T02:55:10;16.47;;;9.83;;
8247;SDS011;4164;49.844;8.830;2022-12-07T02:57:44;17.10;;;10.27;;
8247;SDS011;4164;49.844;8.830;2022-12-07T03:00:50;15.30;;;8.60;;
8247;SDS011;4164;49.844;8.830;2022-12-07T03:03:24;15.73;;;9.30;;
8247;SDS011;4164;49.844;8.830;2022-12-07T03:06:02;18.30;;;10.43;;
8247;SDS011;4164;49.844;8.830;2022-12-07T03:11:11;20.77;;;11.00;;
8247;SDS011;4164;49.844;8.830;2022-12-07T03:13:49;21.13;;;10.40;;
8247;SDS011;4164;49.844;8.830;2022-12-07T03:16:27;18.53;;;9.90;;
8247;SDS011;4164;49.844;8.830;2022-12-07T03:19:02;15.20;;;9.07;;
8247;SDS011;4164;49.844;8.830;2022-12-07T03:21:34;13.97;;;8.60;;
8247;SDS011;4164;49.844;8.830;2022-12-07T03:24:08;15.47;;;9.53;;
8247;SDS011;4164;49.844;8.830;2022-12-07T03:26:41;15.70;;;9.27;;
8247;SDS011;4164;49.844;8.830;2022-12-07T03:29:14;16.23;;;10.10;;
8247;SDS011;4164;49.844;8.830;2022-12-07T03:31:48;17.10;;;9.87;;
8247;SDS011;4164;49.844;8.830;2022-12-07T03:37:00;14.87;;;8.70;;
8247;SDS011;4164;49.844;8.830;2022-12-07T03:39:44;15.43;;;9.23;;
8247;SDS011;4164;49.844;8.830;2022-12-07T03:42:15;20.17;;;9.77;;
8247;SDS011;4164;49.844;8.830;2022-12-07T03:44:40;17.40;;;9.50;;
8247;SDS011;4164;49.844;8.830;2022-12-07T03:47:12;15.53;;;8.67;;
8247;SDS011;4164;49.844;8.830;2022-12-07T03:52:48;14.30;;;7.37;;
8247;SDS011;4164;49.844;8.830;2022-12-07T03:55:30;13.13;;;7.90;;
8247;SDS011;4164;49.844;8.830;2022-12-07T03:58:00;11.87;;;6.83;;
8247;SDS011;4164;49.844;8.830;2022-12-07T04:00:34;14.43;;;8.00;;
8247;SDS011;4164;49.844;8.830;2022-12-07T04:02:59;13.87;;;7.40;;
8247;SDS011;4164;49.844;8.830;2022-12-07T04:05:25;14.00;;;7.70;;
8247;SDS011;4164;49.844;8.830;2022-12-07T04:07:51;11.10;;;6.80;;
8247;SDS011;4164;49.844;8.830;2022-12-07T04:10:17;14.07;;;7.90;;
8247;SDS011;4164;49.844;8.830;2022-12-07T04:12:43;11.40;;;7.20;;
8247;SDS011;4164;49.844;8.830;2022-12-07T04:15:08;13.60;;;7.57;;
8247;SDS011;4164;49.844;8.830;2022-12-07T04:17:34;15.30;;;8.17;;
8247;SDS011;4164;49.844;8.830;2022-12-07T04:20:00;15.67;;;8.07;;
8247;SDS011;4164;49.844;8.830;2022-12-07T04:22:25;12.60;;;7.93;;
8247;SDS011;4164;49.844;8.830;2022-12-07T04:24:51;14.13;;;7.37;;
8247;SDS011;4164;49.844;8.830;2022-12-07T04:27:16;13.10;;;8.23;;
8247;SDS011;4164;49.844;8.830;2022-12-07T04:29:42;14.30;;;8.27;;
8247;SDS011;4164;49.844;8.830;2022-12-07T04:32:07;14.27;;;8.60;;
8247;SDS011;4164;49.844;8.830;2022-12-07T04:34:33;12.87;;;7.67;;
8247;SDS011;4164;49.844;8.830;2022-12-07T04:36:58;16.80;;;8.50;;
8247;SDS011;4164;49.844;8.830;2022-12-07T04:39:26;14.90;;;8.40;;
8247;SDS011;4164;49.844;8.830;2022-12-07T04:41:53;16.97;;;7.73;;
8247;SDS011;4164;49.844;8.830;2022-12-07T04:44:20;15.80;;;8.57;;
8247;SDS011;4164;49.844;8.830;2022-12-07T04:46:46;15.60;;;7.87;;
8247;SDS011;4164;49.844;8.830;2022-12-07T04:49:13;14.93;;;8.00;;
8247;SDS011;4164;49.844;8.830;2022-12-07T04:51:39;14.87;;;8.60;;
8247;SDS011;4164;49.844;8.830;2022-12-07T04:54:05;14.13;;;7.80;;
8247;SDS011;4164;49.844;8.830;2022-12-07T04:56:30;12.53;;;7.53;;
8247;SDS011;4164;49.844;8.830;2022-12-07T04:58:56;14.90;;;8.40;;
8247;SDS011;4164;49.844;8.830;2022-12-07T05:01:22;13.50;;;7.07;;
8247;SDS011;4164;49.844;8.830;2022-12-07T05:03:49;13.40;;;7.90;;
8247;SDS011;4164;49.844;8.830;2022-12-07T05:06:15;16.00;;;7.90;;
8247;SDS011;4164;49.844;8.830;2022-12-07T05:08:42;14.73;;;8.17;;
8247;SDS011;4164;49.844;8.830;2022-12-07T05:11:08;12.67;;;7.27;;
8247;SDS011;4164;49.844;8.830;2022-12-07T05:13:54;13.17;;;7.30;;
8247;SDS011;4164;49.844;8.830;2022-12-07T05:16:20;13.93;;;8.50;;
8247;SDS011;4164;49.844;8.830;2022-12-07T05:18:46;12.83;;;7.43;;
8247;SDS011;4164;49.844;8.830;2022-12-07T05:21:11;11.80;;;7.83;;
8247;SDS011;4164;49.844;8.830;2022-12-07T05:23:37;13.03;;;7.13;;
8247;SDS011;4164;49.844;8.830;2022-12-07T05:26:02;11.93;;;7.30;;
8247;SDS011;4164;49.844;8.830;2022-12-07T05:28:28;13.13;;;7.10;;
8247;SDS011;4164;49.844;8.830;2022-12-07T05:30:53;12.53;;;7.10;;
8247;SDS011;4164;49.844;8.830;2022-12-07T05:33:19;14.97;;;7.93;;
8247;SDS011;4164;49.844;8.830;2022-12-07T05:35:44;12.13;;;7.30;;
8247;SDS011;4164;49.844;8.830;2022-12-07T05:38:13;14.90;;;8.13;;
8247;SDS011;4164;49.844;8.830;2022-12-07T05:40:38;14.00;;;7.87;;
8247;SDS011;4164;49.844;8.830;2022-12-07T05:43:04;12.90;;;7.20;;
8247;SDS011;4164;49.844;8.830;2022-12-07T05:45:29;12.43;;;7.47;;
8247;SDS011;4164;49.844;8.830;2022-12-07T05:47:55;12.90;;;7.67;;
8247;SDS011;4164;49.844;8.830;2022-12-07T05:50:20;12.40;;;7.97;;
8247;SDS011;4164;49.844;8.830;2022-12-07T05:52:46;12.73;;;7.50;;
8247;SDS011;4164;49.844;8.830;2022-12-07T05:55:11;16.50;;;7.83;;
8247;SDS011;4164;49.844;8.830;2022-12-07T05:57:37;13.10;;;7.80;;
8247;SDS011;4164;49.844;8.830;2022-12-07T06:00:03;16.57;;;8.67;;
8247;SDS011;4164;49.844;8.830;2022-12-07T06:02:29;16.53;;;8.73;;
8247;SDS011;4164;49.844;8.830;2022-12-07T06:04:55;13.33;;;8.30;;
8247;SDS011;4164;49.844;8.830;2022-12-07T06:07:20;13.27;;;7.97;;
8247;SDS011;4164;49.844;8.830;2022-12-07T06:09:46;13.10;;;8.30;;
8247;SDS011;4164;49.844;8.830;2022-12-07T06:12:12;14.40;;;8.20;;
8247;SDS011;4164;49.844;8.830;2022-12-07T06:14:56;13.20;;;7.70;;
8247;SDS011;4164;49.844;8.830;2022-12-07T06:17:22;12.83;;;7.80;;
8247;SDS011;4164;49.844;8.830;2022-12-07T06:19:48;12.00;;;7.67;;
8247;SDS011;4164;49.844;8.830;2022-12-07T06:22:13;14.60;;;8.13;;
8247;SDS011;4164;49.844;8.830;2022-12-07T06:24:39;13.53;;;8.60;;
8247;SDS011;4164;49.844;8.830;2022-12-07T06:27:05;13.80;;;7.93;;
8247;SDS011;4164;49.844;8.830;2022-12-07T06:29:33;12.37;;;8.13;;
8247;SDS011;4164;49.844;8.830;2022-12-07T06:31:59;14.57;;;8.27;;
8247;SDS011;4164;49.844;8.830;2022-12-07T06:34:25;15.23;;;8.27;;
8247;SDS011;4164;49.844;8.830;2022-12-07T06:36:51;14.13;;;7.77;;
8247;SDS011;4164;49.844;8.830;2022-12-07T06:39:19;14.90;;;8.03;;
8247;SDS011;4164;49.844;8.830;2022-12-07T06:41:45;13.20;;;8.03;;
8247;SDS011;4164;49.844;8.830;2022-12-07T06:44:11;18.40;;;8.53;;
8247;SDS011;4164;49.844;8.830;2022-12-07T06:46:37;13.97;;;8.07;;
8247;SDS011;4164;49.844;8.830;2022-12-07T06:49:02;13.80;;;7.23;;
8247;SDS011;4164;49.844;8.830;2022-12-07T06:51:29;12.80;;;8.07;;
8247;SDS011;4164;49.844;8.830;2022-12-07T06:53:55;13.47;;;8.47;;
8247;SDS011;4164;49.844;8.830;2022-12-07T06:56:21;13.87;;;7.70;;
8247;SDS011;4164;49.844;8.830;2022-12-07T06:58:47;12.23;;;7.60;;
8247;SDS011;4164;49.844;8.830;2022-12-07T07:01:17;16.50;;;7.83;;
8247;SDS011;4164;49.844;8.830;2022-12-07T07:03:43;13.93;;;8.23;;
8247;SDS011;4164;49.844;8.830;2022-12-07T07:06:10;12.90;;;8.10;;
8247;SDS011;4164;49.844;8.830;2022-12-07T07:08:36;13.47;;;8.40;;
8247;SDS011;4164;49.844;8.830;2022-12-07T07:11:03;14.93;;;8.07;;
8247;SDS011;4164;49.844;8.830;2022-12-07T07:13:29;14.93;;;8.47;;
8247;SDS011;4164;49.844;8.830;2022-12-07T07:15:55;14.83;;;8.30;;
8247;SDS011;4164;49.844;8.830;2022-12-07T07:18:21;13.80;;;8.23;;
8247;SDS011;4164;49.844;8.830;2022-12-07T07:20:47;13.77;;;8.70;;
8247;SDS011;4164;49.844;8.830;2022-12-07T07:23:12;13.20;;;8.10;;
8247;SDS011;4164;49.844;8.830;2022-12-07T07:25:38;13.57;;;8.00;;
8247;SDS011;4164;49.844;8.830;2022-12-07T07:28:04;14.60;;;7.90;;
8247;SDS011;4164;49.844;8.830;2022-12-07T07:30:30;15.80;;;8.47;;
8247;SDS011;4164;49.844;8.830;2022-12-07T07:32:59;13.83;;;8.30;;
8247;SDS011;4164;49.844;8.830;2022-12-07T07:35:26;17.33;;;9.97;;
8247;SDS011;4164;49.844;8.830;2022-12-07T07:37:53;17.40;;;9.57;;
8247;SDS011;4164;49.844;8.830;2022-12-07T07:40:19;12.43;;;8.17;;
8247;SDS011;4164;49.844;8.830;2022-12-07T07:42:49;13.80;;;7.53;;
8247;SDS011;4164;49.844;8.830;2022-12-07T07:45:19;14.63;;;8.63;;
8247;SDS011;4164;49.844;8.830;2022-12-07T07:47:47;12.63;;;8.30;;
8247;SDS011;4164;49.844;8.830;2022-12-07T07:50:13;12.73;;;8.03;;
8247;SDS011;4164;49.844;8.830;2022-12-07T07:52:39;14.80;;;9.63;;
8247;SDS011;4164;49.844;8.830;2022-12-07T07:55:04;13.50;;;8.33;;
8247;SDS011;4164;49.844;8.830;2022-12-07T07:57:30;15.97;;;8.37;;
8247;SDS011;4164;49.844;8.830;2022-12-07T07:59:56;15.87;;;9.27;;
8247;SDS011;4164;49.844;8.830;2022-12-07T08:02:21;15.20;;;9.27;;
8247;SDS011;4164;49.844;8.830;2022-12-07T08:04:47;15.10;;;9.47;;
8247;SDS011;4164;49.844;8.830;2022-12-07T08:07:13;15.03;;;8.93;;
8247;SDS011;4164;49.844;8.830;2022-12-07T08:09:39;14.77;;;8.40;;
8247;SDS011;4164;49.844;8.830;2022-12-07T08:12:05;13.00;;;8.07;;
8247;SDS011;4164;49.844;8.830;2022-12-07T08:14:31;14.83;;;8.97;;
8247;SDS011;4164;49.844;8.830;2022-12-07T08:16:57;21.70;;;11.40;;
8247;SDS011;4164;49.844;8.830;2022-12-07T08:19:23;14.47;;;8.57;;
8247;SDS011;4164;49.844;8.830;2022-12-07T08:21:48;15.93;;;9.17;;
8247;SDS011;4164;49.844;8.830;2022-12-07T08:24:14;14.80;;;8.80;;
8247;SDS011;4164;49.844;8.830;2022-12-07T08:26:40;14.87;;;8.87;;
8247;SDS011;4164;49.844;8.830;2022-12-07T08:29:06;19.90;;;10.77;;
8247;SDS011;4164;49.844;8.830;2022-12-07T08:31:35;20.33;;;10.83;;
8247;SDS011;4164;49.844;8.830;2022-12-07T08:34:01;17.20;;;10.30;;
8247;SDS011;4164;49.844;8.830;2022-12-07T08:36:26;17.80;;;9.03;;
8247;SDS011;4164;49.844;8.830;2022-12-07T08:38:52;16.10;;;9.17;;
8247;SDS011;4164;49.844;8.830;2022-12-07T08:41:18;16.80;;;9.50;;
8247;SDS011;4164;49.844;8.830;2022-12-07T08:43:43;12.13;;;7.87;;
8247;SDS011;4164;49.844;8.830;2022-12-07T08:48:45;20.27;;;10.17;;
8247;SDS011;4164;49.844;8.830;2022-12-07T08:51:17;16.00;;;8.33;;
8247;SDS011;4164;49.844;8.830;2022-12-07T08:53:43;20.07;;;9.87;;
8247;SDS011;4164;49.844;8.830;2022-12-07T08:56:10;13.93;;;8.73;;
8247;SDS011;4164;49.844;8.830;2022-12-07T08:58:36;18.63;;;9.13;;
8247;SDS011;4164;49.844;8.830;2022-12-07T09:01:03;15.40;;;8.93;;
8247;SDS011;4164;49.844;8.830;2022-12-07T09:03:29;18.97;;;10.10;;
8247;SDS011;4164;49.844;8.830;2022-12-07T09:05:55;16.10;;;8.97;;
8247;SDS011;4164;49.844;8.830;2022-12-07T09:08:22;14.70;;;8.93;;
8247;SDS011;4164;49.844;8.830;2022-12-07T09:10:51;14.93;;;8.50;;
8247;SDS011;4164;49.844;8.830;2022-12-07T09:13:16;14.17;;;8.27;;
8247;SDS011;4164;49.844;8.830;2022-12-07T09:15:45;13.83;;;8.07;;
8247;SDS011;4164;49.844;8.830;2022-12-07T09:18:11;16.03;;;9.37;;
8247;SDS011;4164;49.844;8.830;2022-12-07T09:20:37;15.67;;;8.27;;
8247;SDS011;4164;49.844;8.830;2022-12-07T09:23:04;15.13;;;9.10;;
8247;SDS011;4164;49.844;8.830;2022-12-07T09:25:31;13.70;;;8.07;;
8247;SDS011;4164;49.844;8.830;2022-12-07T09:27:58;13.30;;;8.57;;
8247;SDS011;4164;49.844;8.830;2022-12-07T09:30:24;13.80;;;8.30;;
8247;SDS011;4164;49.844;8.830;2022-12-07T09:32:51;15.97;;;9.03;;
8247;SDS011;4164;49.844;8.830;2022-12-07T09:35:18;15.73;;;9.10;;
8247;SDS011;4164;49.844;8.830;2022-12-07T09:37:43;14.87;;;8.50;;
8247;SDS011;4164;49.844;8.830;2022-12-07T09:40:09;14.47;;;8.53;;
8247;SDS011;4164;49.844;8.830;2022-12-07T09:42:37;13.67;;;8.80;;
8247;SDS011;4164;49.844;8.830;2022-12-07T09:45:05;15.23;;;8.00;;
8247;SDS011;4164;49.844;8.830;2022-12-07T09:47:38;14.53;;;7.53;;
8247;SDS011;4164;49.844;8.830;2022-12-07T09:50:04;14.00;;;8.30;;
8247;SDS011;4164;49.844;8.830;2022-12-07T09:52:36;12.63;;;8.10;;
8247;SDS011;4164;49.844;8.830;2022-12-07T09:55:02;15.63;;;8.03;;
8247;SDS011;4164;49.844;8.830;2022-12-07T09:57:29;11.87;;;7.70;;
8247;SDS011;4164;49.844;8.830;2022-12-07T10:00:00;11.60;;;7.53;;
8247;SDS011;4164;49.844;8.830;2022-12-07T10:02:35;13.10;;;8.13;;
8247;SDS011;4164;49.844;8.830;2022-12-07T10:05:02;11.67;;;7.00;;
8247;SDS011;4164;49.844;8.830;2022-12-07T10:07:32;10.00;;;6.70;;
8247;SDS011;4164;49.844;8.830;2022-12-07T10:09:58;9.37;;;6.93;;
8247;SDS011;4164;49.844;8.830;2022-12-07T10:12:23;9.57;;;6.63;;
8247;SDS011;4164;49.844;8.830;2022-12-07T10:14:57;10.70;;;6.73;;
8247;SDS011;4164;49.844;8.830;2022-12-07T10:22:36;10.87;;;7.33;;
8247;SDS011;4164;49.844;8.830;2022-12-07T10:25:16;12.17;;;7.30;;
8247;SDS011;4164;49.844;8.830;2022-12-07T10:27:44;14.00;;;7.73;;
8247;SDS011;4164;49.844;8.830;2022-12-07T10:30:26;13.43;;;7.33;;
8247;SDS011;4164;49.844;8.830;2022-12-07T10:32:51;13.03;;;7.93;;
8247;SDS011;4164;49.844;8.830;2022-12-07T10:35:24;15.43;;;8.00;;
8247;SDS011;4164;49.844;8.830;2022-12-07T10:37:52;15.53;;;8.63;;
8247;SDS011;4164;49.844;8.830;2022-12-07T10:40:24;14.60;;;8.40;;
8247;SDS011;4164;49.844;8.830;2022-12-07T10:43:35;21.67;;;12.23;;
8247;SDS011;4164;49.844;8.830;2022-12-07T10:48:18;16.13;;;8.37;;
8247;SDS011;4164;49.844;8.830;2022-12-07T10:51:09;13.10;;;8.60;;
8247;SDS011;4164;49.844;8.830;2022-12-07T10:53:54;18.17;;;8.43;;
8247;SDS011;4164;49.844;8.830;2022-12-07T10:58:53;14.20;;;8.87;;
8247;SDS011;4164;49.844;8.830;2022-12-07T11:01:31;15.80;;;8.13;;
8247;SDS011;4164;49.844;8.830;2022-12-07T11:15:04;13.40;;;9.03;;
8247;SDS011;4164;49.844;8.830;2022-12-07T11:17:52;11.17;;;6.90;;
8247;SDS011;4164;49.844;8.830;2022-12-07T11:23:06;12.13;;;7.23;;
8247;SDS011;4164;49.844;8.830;2022-12-07T11:25:50;12.93;;;8.23;;
8247;SDS011;4164;49.844;8.830;2022-12-07T11:34:00;13.30;;;7.03;;
8247;SDS011;4164;49.844;8.830;2022-12-07T11:36:55;12.97;;;6.87;;
8247;SDS011;4164;49.844;8.830;2022-12-07T11:41:52;14.40;;;8.57;;
8247;SDS011;4164;49.844;8.830;2022-12-07T11:44:37;12.23;;;7.57;;
8247;SDS011;4164;49.844;8.830;2022-12-07T11:52:47;9.27;;;6.47;;
8247;SDS011;4164;49.844;8.830;2022-12-07T11:55:23;10.53;;;6.47;;
8247;SDS011;4164;49.844;8.830;2022-12-07T11:57:58;9.03;;;5.97;;
8247;SDS011;4164;49.844;8.830;2022-12-07T12:00:29;15.10;;;7.03;;
8247;SDS011;4164;49.844;8.830;2022-12-07T12:02:59;11.87;;;7.90;;
8247;SDS011;4164;49.844;8.830;2022-12-07T12:05:45;14.23;;;7.57;;
8247;SDS011;4164;49.844;8.830;2022-12-07T12:08:13;13.10;;;7.43;;
8247;SDS011;4164;49.844;8.830;2022-12-07T12:21:41;10.60;;;7.00;;
8247;SDS011;4164;49.844;8.830;2022-12-07T12:24:13;11.70;;;5.97;;
8247;SDS011;4164;49.844;8.830;2022-12-07T12:26:48;10.90;;;6.13;;
8247;SDS011;4164;49.844;8.830;2022-12-07T12:29:33;9.17;;;6.03;;
8247;SDS011;4164;49.844;8.830;2022-12-07T12:32:06;8.73;;;5.13;;
8247;SDS011;4164;49.844;8.830;2022-12-07T12:34:39;12.23;;;6.40;;
8247;SDS011;4164;49.844;8.830;2022-12-07T12:37:38;10.70;;;6.67;;
8247;SDS011;4164;49.844;8.830;2022-12-07T12:45:19;8.37;;;5.60;;
8247;SDS011;4164;49.844;8.830;2022-12-07T12:47:53;13.87;;;5.87;;
8247;SDS011;4164;49.844;8.830;2022-12-07T12:50:27;8.83;;;4.77;;
8247;SDS011;4164;49.844;8.830;2022-12-07T12:52:59;11.90;;;5.30;;
8247;SDS011;4164;49.844;8.830;2022-12-07T12:56:20;7.87;;;4.47;;
8247;SDS011;4164;49.844;8.830;2022-12-07T12:58:36;6.93;;;4.40;;
8247;SDS011;4164;49.844;8.830;2022-12-07T13:03:51;9.50;;;4.93;;
8247;SDS011;4164;49.844;8.830;2022-12-07T13:06:20;8.07;;;4.13;;
8247;SDS011;4164;49.844;8.830;2022-12-07T13:09:00;7.97;;;3.90;;
8247;SDS011;4164;49.844;8.830;2022-12-07T13:11:37;8.60;;;3.60;;
8247;SDS011;4164;49.844;8.830;2022-12-07T13:17:02;8.03;;;4.67;;
8247;SDS011;4164;49.844;8.830;2022-12-07T13:22:49;6.40;;;3.53;;
8247;SDS011;4164;49.844;8.830;2022-12-07T13:25:11;6.87;;;3.70;;
8247;SDS011;4164;49.844;8.830;2022-12-07T13:27:38;5.63;;;3.30;;
8247;SDS011;4164;49.844;8.830;2022-12-07T13:30:16;7.53;;;3.10;;
8247;SDS011;4164;49.844;8.830;2022-12-07T13:32:54;8.80;;;3.50;;
8247;SDS011;4164;49.844;8.830;2022-12-07T13:35:31;4.90;;;3.13;;
8247;SDS011;4164;49.844;8.830;2022-12-07T13:38:05;4.87;;;3.00;;
8247;SDS011;4164;49.844;8.830;2022-12-07T13:40:41;7.73;;;3.47;;
8247;SDS011;4164;49.844;8.830;2022-12-07T13:43:14;7.17;;;4.07;;
8247;SDS011;4164;49.844;8.830;2022-12-07T13:45:41;8.10;;;3.97;;
8247;SDS011;4164;49.844;8.830;2022-12-07T13:48:35;8.73;;;4.00;;
8247;SDS011;4164;49.844;8.830;2022-12-07T13:51:02;8.40;;;2.83;;
8247;SDS011;4164;49.844;8.830;2022-12-07T13:53:29;6.00;;;3.40;;
8247;SDS011;4164;49.844;8.830;2022-12-07T13:55:56;5.80;;;3.00;;
8247;SDS011;4164;49.844;8.830;2022-12-07T13:58:22;8.43;;;3.80;;
8247;SDS011;4164;49.844;8.830;2022-12-07T14:00:49;6.77;;;4.13;;
8247;SDS011;4164;49.844;8.830;2022-12-07T14:05:41;5.57;;;3.70;;
8247;SDS011;4164;49.844;8.830;2022-12-07T14:10:41;10.77;;;4.97;;
8247;SDS011;4164;49.844;8.830;2022-12-07T14:16:26;9.07;;;4.80;;
8247;SDS011;4164;49.844;8.830;2022-12-07T14:18:53;11.43;;;5.03;;
8247;SDS011;4164;49.844;8.830;2022-12-07T14:21:20;6.70;;;4.33;;
8247;SDS011;4164;49.844;8.830;2022-12-07T14:26:34;8.43;;;5.03;;
8247;SDS011;4164;49.844;8.830;2022-12-07T14:31:51;8.70;;;4.50;;
8247;SDS011;4164;49.844;8.830;2022-12-07T14:34:19;9.43;;;4.23;;
8247;SDS011;4164;49.844;8.830;2022-12-07T14:36:45;8.20;;;4.50;;
8247;SDS011;4164;49.844;8.830;2022-12-07T14:39:11;8.17;;;4.40;;
8247;SDS011;4164;49.844;8.830;2022-12-07T14:41:36;7.67;;;3.73;;
8247;SDS011;4164;49.844;8.830;2022-12-07T14:44:17;9.10;;;4.77;;
8247;SDS011;4164;49.844;8.830;2022-12-07T14:46:47;8.43;;;4.30;;
8247;SDS011;4164;49.844;8.830;2022-12-07T14:49:14;6.27;;;3.90;;
8247;SDS011;4164;49.844;8.830;2022-12-07T14:51:40;8.13;;;4.47;;
8247;SDS011;4164;49.844;8.830;2022-12-07T14:54:06;9.60;;;5.03;;
8247;SDS011;4164;49.844;8.830;2022-12-07T14:56:44;11.13;;;5.33;;
8247;SDS011;4164;49.844;8.830;2022-12-07T14:59:13;11.07;;;6.00;;
8247;SDS011;4164;49.844;8.830;2022-12-07T15:01:40;8.90;;;4.93;;
8247;SDS011;4164;49.844;8.830;2022-12-07T15:04:05;8.07;;;4.73;;
8247;SDS011;4164;49.844;8.830;2022-12-07T15:06:31;8.10;;;5.07;;
8247;SDS011;4164;49.844;8.830;2022-12-07T15:08:56;6.57;;;3.90;;
8247;SDS011;4164;49.844;8.830;2022-12-07T15:11:22;13.43;;;4.57;;
8247;SDS011;4164;49.844;8.830;2022-12-07T15:13:47;7.93;;;4.20;;
8247;SDS011;4164;49.844;8.830;2022-12-07T15:16:31;8.97;;;4.50;;
8247;SDS011;4164;49.844;8.830;2022-12-07T15:18:57;10.50;;;5.83;;
8247;SDS011;4164;49.844;8.830;2022-12-07T15:21:23;11.23;;;4.40;;
8247;SDS011;4164;49.844;8.830;2022-12-07T15:23:48;10.60;;;5.43;;
8247;SDS011;4164;49.844;8.830;2022-12-07T15:26:14;7.07;;;4.27;;
8247;SDS011;4164;49.844;8.830;2022-12-07T15:28:40;8.63;;;4.30;;
8247;SDS011;4164;49.844;8.830;2022-12-07T15:31:13;7.40;;;4.07;;
8247;SDS011;4164;49.844;8.830;2022-12-07T15:33:39;8.83;;;3.83;;
8247;SDS011;4164;49.844;8.830;2022-12-07T15:36:05;6.50;;;3.70;;
8247;SDS011;4164;49.844;8.830;2022-12-07T15:38:31;8.47;;;4.10;;
8247;SDS011;4164;49.844;8.830;2022-12-07T15:40:57;9.43;;;4.17;;
8247;SDS011;4164;49.844;8.830;2022-12-07T15:43:22;10.80;;;4.30;;
8247;SDS011;4164;49.844;8.830;2022-12-07T15:46:06;10.47;;;5.80;;
8247;SDS011;4164;49.844;8.830;2022-12-07T15:48:32;10.23;;;5.03;;
8247;SDS011;4164;49.844;8.830;2022-12-07T15:51:05;8.23;;;4.57;;
8247;SDS011;4164;49.844;8.830;2022-12-07T15:53:32;8.57;;;4.33;;
8247;SDS011;4164;49.844;8.830;2022-12-07T15:55:58;6.80;;;3.30;;
8247;SDS011;4164;49.844;8.830;2022-12-07T15:58:24;4.57;;;3.27;;
8247;SDS011;4164;49.844;8.830;2022-12-07T16:00:50;8.30;;;3.47;;
8247;SDS011;4164;49.844;8.830;2022-12-07T16:03:15;10.73;;;3.20;;
8247;SDS011;4164;49.844;8.830;2022-12-07T16:05:41;4.97;;;3.30;;
8247;SDS011;4164;49.844;8.830;2022-12-07T16:08:06;14.20;;;3.07;;
8247;SDS011;4164;49.844;8.830;2022-12-07T16:10:32;5.30;;;3.33;;
8247;SDS011;4164;49.844;8.830;2022-12-07T16:12:58;8.07;;;3.70;;
8247;SDS011;4164;49.844;8.830;2022-12-07T16:15:23;6.83;;;4.20;;
8247;SDS011;4164;49.844;8.830;2022-12-07T16:17:50;6.80;;;4.47;;
8247;SDS011;4164;49.844;8.830;2022-12-07T16:20:16;11.20;;;5.83;;
8247;SDS011;4164;49.844;8.830;2022-12-07T16:22:42;10.93;;;6.57;;
8247;SDS011;4164;49.844;8.830;2022-12-07T16:25:07;13.03;;;6.90;;
8247;SDS011;4164;49.844;8.830;2022-12-07T16:27:33;16.33;;;9.43;;
8247;SDS011;4164;49.844;8.830;2022-12-07T16:29:59;17.43;;;8.83;;
8247;SDS011;4164;49.844;8.830;2022-12-07T16:32:25;23.53;;;10.67;;
8247;SDS011;4164;49.844;8.830;2022-12-07T16:34:50;23.33;;;11.10;;
8247;SDS011;4164;49.844;8.830;2022-12-07T16:37:16;10.53;;;6.10;;
8247;SDS011;4164;49.844;8.830;2022-12-07T16:39:42;13.73;;;7.67;;
8247;SDS011;4164;49.844;8.830;2022-12-07T16:42:07;16.53;;;7.87;;
8247;SDS011;4164;49.844;8.830;2022-12-07T16:44:33;9.80;;;5.77;;
8247;SDS011;4164;49.844;8.830;2022-12-07T16:46:59;13.07;;;6.47;;
8247;SDS011;4164;49.844;8.830;2022-12-07T16:49:25;16.50;;;8.53;;
8247;SDS011;4164;49.844;8.830;2022-12-07T16:51:51;9.60;;;6.37;;
8247;SDS011;4164;49.844;8.830;2022-12-07T16:54:17;14.67;;;8.33;;
8247;SDS011;4164;49.844;8.830;2022-12-07T16:56:43;17.10;;;9.00;;